createdAt,value
2022-09-30T00:01:18.741Z,4.43
2022-09-30T00:03:49.410Z,3.83
2022-09-30T00:06:17.471Z,4.50
2022-09-30T00:08:45.536Z,4.57
2022-09-30T00:11:17.751Z,3.60
2022-09-30T00:13:46.453Z,4.50
2022-09-30T00:16:15.166Z,4.27
2022-09-30T00:18:43.516Z,4.10
2022-09-30T00:21:13.340Z,4.20
2022-09-30T00:23:41.389Z,4.43
2022-09-30T00:26:12.201Z,4.50
2022-09-30T00:28:40.413Z,4.23
2022-09-30T00:31:10.000Z,4.30
2022-09-30T00:33:38.088Z,3.93
2022-09-30T00:36:06.389Z,4.13
2022-09-30T00:38:35.821Z,3.90
2022-09-30T00:41:04.400Z,3.77
2022-09-30T00:43:43.401Z,3.67
2022-09-30T00:46:17.918Z,4.07
2022-09-30T00:48:46.052Z,4.03
2022-09-30T00:51:14.094Z,4.13
2022-09-30T00:53:46.474Z,3.87
2022-09-30T00:56:15.204Z,3.70
2022-09-30T00:58:44.943Z,3.87
2022-09-30T01:01:13.198Z,4.07
2022-09-30T01:03:49.660Z,4.30
2022-09-30T01:06:22.936Z,4.17
2022-09-30T01:08:52.380Z,3.80
2022-09-30T01:11:20.455Z,3.80
2022-09-30T01:13:51.817Z,3.90
2022-09-30T01:16:30.942Z,3.40
2022-09-30T01:19:17.148Z,3.50
2022-09-30T01:22:14.654Z,3.70
2022-09-30T01:25:04.452Z,3.70
2022-09-30T01:27:52.784Z,3.80
2022-09-30T01:30:21.188Z,3.30
2022-09-30T01:33:14.347Z,3.90
2022-09-30T01:35:56.580Z,3.73
2022-09-30T01:38:28.532Z,3.40
2022-09-30T01:41:02.419Z,4.10
2022-09-30T01:43:39.989Z,3.73
2022-09-30T01:46:11.855Z,3.80
2022-09-30T01:48:43.324Z,3.70
2022-09-30T01:51:18.447Z,3.67
2022-09-30T01:53:48.084Z,3.90
2022-09-30T01:56:19.057Z,4.20
2022-09-30T01:58:49.173Z,3.40
2022-09-30T02:01:19.334Z,3.80
2022-09-30T02:03:49.386Z,3.77
2022-09-30T02:06:20.568Z,3.50
2022-09-30T02:08:50.711Z,3.10
2022-09-30T02:11:19.621Z,3.63
2022-09-30T02:13:50.503Z,3.20
2022-09-30T02:16:21.693Z,3.97
2022-09-30T02:18:52.216Z,3.80
2022-09-30T02:21:22.632Z,3.30
2022-09-30T02:23:51.632Z,3.50
2022-09-30T02:26:21.096Z,3.53
2022-09-30T02:28:52.633Z,3.40
2022-09-30T02:31:21.203Z,3.40
2022-09-30T02:33:51.553Z,3.37
2022-09-30T02:36:22.138Z,3.00
2022-09-30T02:38:51.945Z,3.13
2022-09-30T02:41:21.752Z,3.47
2022-09-30T02:43:49.830Z,3.40
2022-09-30T02:46:21.823Z,3.33
2022-09-30T02:48:54.738Z,3.73
2022-09-30T02:51:24.506Z,3.33
2022-09-30T02:53:55.352Z,3.80
2022-09-30T02:56:30.139Z,3.43
2022-09-30T02:58:58.218Z,3.10
2022-09-30T03:01:26.258Z,3.23
2022-09-30T03:03:57.059Z,3.23
2022-09-30T03:06:25.121Z,3.30
2022-09-30T03:08:53.501Z,3.60
2022-09-30T03:11:22.612Z,3.33
2022-09-30T03:14:24.107Z,2.80
2022-09-30T03:17:34.838Z,3.17
2022-09-30T03:20:15.670Z,3.40
2022-09-30T03:23:01.523Z,3.30
2022-09-30T03:25:34.145Z,3.20
2022-09-30T03:28:07.028Z,2.70
2022-09-30T03:30:35.632Z,3.13
2022-09-30T03:33:09.004Z,2.93
2022-09-30T03:35:44.701Z,2.97
2022-09-30T03:38:15.148Z,3.03
2022-09-30T03:40:45.144Z,3.27
2022-09-30T03:43:17.097Z,3.00
2022-09-30T03:45:49.220Z,3.67
2022-09-30T03:48:17.277Z,3.13
2022-09-30T03:50:46.725Z,3.17
2022-09-30T03:53:14.793Z,3.30
2022-09-30T03:55:48.915Z,3.07
2022-09-30T03:58:17.143Z,3.20
2022-09-30T04:00:48.604Z,3.10
2022-09-30T04:03:22.918Z,3.00
2022-09-30T04:05:52.370Z,3.47
2022-09-30T04:08:20.646Z,3.23
2022-09-30T04:10:48.683Z,2.80
2022-09-30T04:13:16.746Z,3.10
2022-09-30T04:15:44.802Z,2.90
2022-09-30T04:18:12.852Z,3.10
2022-09-30T04:20:46.044Z,3.10
2022-09-30T04:23:15.462Z,3.10
2022-09-30T04:25:43.512Z,3.50
2022-09-30T04:28:16.181Z,3.00
2022-09-30T04:30:44.248Z,3.17
2022-09-30T04:33:12.873Z,3.23
2022-09-30T04:35:40.983Z,3.23
2022-09-30T04:38:09.042Z,3.27
2022-09-30T04:40:39.144Z,3.50
2022-09-30T04:43:07.239Z,3.00
2022-09-30T04:45:35.382Z,3.10
2022-09-30T04:48:03.442Z,3.47
2022-09-30T04:50:31.492Z,3.00
2022-09-30T04:52:59.524Z,3.03
2022-09-30T04:55:27.588Z,3.30
2022-09-30T04:57:57.016Z,3.47
2022-09-30T05:00:25.899Z,3.13
2022-09-30T05:02:53.967Z,3.03
2022-09-30T05:05:22.076Z,3.00
2022-09-30T05:07:50.098Z,3.30
2022-09-30T05:10:18.276Z,3.53
2022-09-30T05:12:46.308Z,3.70
2022-09-30T05:15:15.739Z,3.20
2022-09-30T05:17:43.798Z,3.03
2022-09-30T05:20:11.902Z,3.50
2022-09-30T05:22:39.991Z,3.20
2022-09-30T05:25:08.776Z,3.23
2022-09-30T05:27:36.858Z,3.43
2022-09-30T05:30:06.635Z,3.43
2022-09-30T05:32:36.075Z,2.93
2022-09-30T05:35:04.919Z,3.83
2022-09-30T05:37:32.952Z,3.13
2022-09-30T05:40:04.247Z,3.40
2022-09-30T05:42:32.898Z,3.13
2022-09-30T05:45:00.971Z,3.40
2022-09-30T05:47:29.022Z,4.10
2022-09-30T05:49:58.492Z,3.43
2022-09-30T05:52:28.378Z,3.43
2022-09-30T05:54:57.687Z,3.43
2022-09-30T05:57:25.726Z,3.80
2022-09-30T05:59:53.856Z,3.33
2022-09-30T06:02:21.934Z,3.30
2022-09-30T06:04:50.521Z,3.60
2022-09-30T06:07:19.950Z,3.20
2022-09-30T06:09:48.058Z,3.57
2022-09-30T06:12:16.574Z,3.83
2022-09-30T06:14:44.628Z,3.23
2022-09-30T06:17:12.690Z,4.13
2022-09-30T06:19:40.774Z,3.57
2022-09-30T06:22:08.832Z,3.33
2022-09-30T06:24:38.321Z,3.40
2022-09-30T06:27:06.381Z,3.70
2022-09-30T06:29:34.445Z,3.47
2022-09-30T06:32:03.509Z,3.30
2022-09-30T06:34:31.597Z,3.60
2022-09-30T06:36:59.666Z,4.00
2022-09-30T06:39:28.196Z,3.70
2022-09-30T06:41:57.657Z,3.37
2022-09-30T06:44:25.712Z,3.30
2022-09-30T06:46:54.898Z,3.83
2022-09-30T06:49:23.127Z,3.67
2022-09-30T06:51:52.258Z,3.43
2022-09-30T06:54:20.700Z,3.67
2022-09-30T06:56:48.827Z,3.50
2022-09-30T06:59:18.397Z,3.30
2022-09-30T07:01:46.621Z,3.60
2022-09-30T07:04:15.029Z,3.13
2022-09-30T07:06:46.932Z,3.43
2022-09-30T07:09:15.148Z,3.73
2022-09-30T07:11:43.562Z,3.60
2022-09-30T07:14:13.464Z,3.13
2022-09-30T07:16:47.634Z,3.17
2022-09-30T07:19:17.725Z,3.50
2022-09-30T07:21:45.794Z,3.33
2022-09-30T07:24:14.180Z,3.73
2022-09-30T07:26:42.233Z,3.67
2022-09-30T07:29:10.286Z,3.47
2022-09-30T07:31:38.462Z,3.43
2022-09-30T07:34:08.629Z,3.53
2022-09-30T07:36:37.859Z,3.50
2022-09-30T07:39:08.337Z,3.43
2022-09-30T07:41:37.817Z,3.60
2022-09-30T07:44:12.480Z,3.33
2022-09-30T07:46:40.641Z,3.90
2022-09-30T07:49:13.579Z,3.67
2022-09-30T07:51:44.087Z,4.20
2022-09-30T07:54:14.338Z,3.50
2022-09-30T07:57:10.118Z,3.33
2022-09-30T07:59:32.733Z,4.03
2022-09-30T08:02:00.895Z,3.60
2022-09-30T08:04:30.336Z,3.70
2022-09-30T08:06:59.293Z,3.47
2022-09-30T08:09:28.564Z,3.13
2022-09-30T08:11:56.845Z,3.57
2022-09-30T08:14:25.860Z,3.60
2022-09-30T08:16:54.052Z,3.70
2022-09-30T08:19:23.467Z,3.50
2022-09-30T08:21:54.002Z,3.27
2022-09-30T08:24:22.536Z,3.30
2022-09-30T08:26:50.655Z,3.33
2022-09-30T08:29:36.079Z,3.80
2022-09-30T08:32:06.875Z,3.93
2022-09-30T08:34:40.272Z,3.43
2022-09-30T08:37:10.328Z,3.60
2022-09-30T08:39:38.768Z,3.13
2022-09-30T08:42:35.491Z,3.80
2022-09-30T08:45:05.061Z,3.10
2022-09-30T08:47:40.382Z,3.20
2022-09-30T08:50:16.277Z,3.60
2022-09-30T08:52:50.055Z,3.47
2022-09-30T08:55:21.825Z,3.17
2022-09-30T08:57:49.907Z,3.40
2022-09-30T09:00:18.955Z,3.23
2022-09-30T09:02:50.258Z,3.63
2022-09-30T09:05:23.237Z,3.13
2022-09-30T09:07:56.897Z,3.57
2022-09-30T09:10:29.499Z,2.97
2022-09-30T09:13:00.321Z,2.83
2022-09-30T09:15:38.917Z,3.13
2022-09-30T09:18:24.390Z,2.90
2022-09-30T09:20:55.983Z,3.63
2022-09-30T09:23:25.545Z,3.30
2022-09-30T09:25:55.859Z,3.00
2022-09-30T09:28:33.781Z,3.17
2022-09-30T09:31:02.005Z,2.90
2022-09-30T09:33:31.150Z,3.30
2022-09-30T09:36:05.040Z,3.40
2022-09-30T09:38:38.350Z,3.20
2022-09-30T09:41:13.622Z,2.90
2022-09-30T09:43:52.821Z,3.17
2022-09-30T09:46:23.664Z,2.83
2022-09-30T09:48:56.343Z,3.40
2022-09-30T09:51:25.781Z,3.20
2022-09-30T09:53:59.584Z,3.30
2022-09-30T09:56:32.570Z,3.40
2022-09-30T09:59:12.540Z,3.00
2022-09-30T10:01:42.286Z,3.37
2022-09-30T10:04:19.915Z,2.70
2022-09-30T10:06:50.301Z,3.00
2022-09-30T10:09:40.840Z,2.93
2022-09-30T10:12:35.774Z,3.20
2022-09-30T10:15:20.932Z,2.80
2022-09-30T10:17:56.060Z,3.20
2022-09-30T10:20:31.558Z,2.63
2022-09-30T10:23:05.889Z,2.60
2022-09-30T10:25:35.729Z,2.80
2022-09-30T10:28:04.548Z,2.47
2022-09-30T10:30:38.779Z,2.47
2022-09-30T10:33:27.338Z,2.50
2022-09-30T10:35:58.037Z,2.57
2022-09-30T10:38:29.287Z,3.10
2022-09-30T10:40:59.705Z,2.67
2022-09-30T10:43:31.164Z,2.60
2022-09-30T10:46:24.488Z,2.60
2022-09-30T10:48:51.325Z,2.60
2022-09-30T10:51:28.038Z,2.93
2022-09-30T10:53:56.836Z,2.30
2022-09-30T10:56:43.910Z,2.73
2022-09-30T10:59:21.097Z,2.50
2022-09-30T11:01:53.711Z,2.40
2022-09-30T11:04:28.027Z,2.40
2022-09-30T11:06:58.883Z,2.53
2022-09-30T11:09:31.120Z,2.90
2022-09-30T11:12:02.073Z,2.63
2022-09-30T11:14:32.705Z,2.10
2022-09-30T11:17:06.353Z,2.30
2022-09-30T11:19:36.851Z,2.30
2022-09-30T11:22:11.188Z,3.00
2022-09-30T11:24:40.721Z,2.30
2022-09-30T11:27:12.758Z,2.60
2022-09-30T11:29:49.928Z,2.60
2022-09-30T11:32:24.332Z,2.50
2022-09-30T11:34:58.184Z,3.10
2022-09-30T11:37:31.129Z,3.03
2022-09-30T11:40:10.863Z,2.47
2022-09-30T11:42:41.966Z,2.50
2022-09-30T11:45:15.451Z,2.30
2022-09-30T11:48:00.126Z,2.07
2022-09-30T11:50:35.133Z,2.10
2022-09-30T11:53:10.546Z,2.43
2022-09-30T11:55:47.637Z,2.23
2022-09-30T11:58:40.015Z,2.10
2022-09-30T12:01:21.834Z,2.50
2022-09-30T12:03:57.403Z,2.00
2022-09-30T12:06:29.717Z,2.23
2022-09-30T12:08:59.999Z,2.40
2022-09-30T12:11:33.813Z,2.23
2022-09-30T12:14:06.061Z,2.27
2022-09-30T12:16:34.319Z,2.20
2022-09-30T12:19:05.598Z,2.10
2022-09-30T12:21:35.596Z,1.90
2022-09-30T12:24:05.724Z,2.23
2022-09-30T12:26:34.766Z,2.60
2022-09-30T12:29:24.051Z,2.40
2022-09-30T12:32:09.463Z,2.10
2022-09-30T12:34:48.382Z,2.10
2022-09-30T12:37:23.477Z,2.53
2022-09-30T12:40:11.497Z,2.57
2022-09-30T12:43:13.465Z,2.00
2022-09-30T12:46:23.478Z,1.97
2022-09-30T12:48:53.562Z,1.90
2022-09-30T12:51:27.051Z,2.33
2022-09-30T12:53:59.307Z,2.00
2022-09-30T12:56:28.544Z,2.37
2022-09-30T12:58:57.993Z,2.17
2022-09-30T13:01:28.203Z,2.00
2022-09-30T13:04:30.630Z,2.13
2022-09-30T13:07:23.066Z,1.83
2022-09-30T13:10:01.850Z,2.10
2022-09-30T13:12:41.675Z,2.10
2022-09-30T13:15:43.368Z,2.43
2022-09-30T13:18:47.536Z,2.17
2022-09-30T13:21:22.565Z,2.00
2022-09-30T13:23:51.064Z,1.93
2022-09-30T13:26:38.773Z,2.20
2022-09-30T13:29:29.604Z,1.70
2022-09-30T13:32:03.934Z,1.83
2022-09-30T13:34:32.774Z,2.00
2022-09-30T13:37:02.542Z,2.00
2022-09-30T13:39:45.681Z,1.90
2022-09-30T13:42:15.954Z,1.80
2022-09-30T13:44:57.364Z,1.97
2022-09-30T13:47:28.953Z,1.93
2022-09-30T13:49:59.076Z,1.40
2022-09-30T13:52:30.385Z,2.00
2022-09-30T13:54:59.673Z,1.73
2022-09-30T13:57:29.978Z,2.10
2022-09-30T14:00:06.086Z,1.70
2022-09-30T14:03:12.788Z,2.03
2022-09-30T14:06:00.222Z,2.00
2022-09-30T14:09:15.852Z,1.70
2022-09-30T14:11:56.442Z,1.53
2022-09-30T14:14:51.957Z,1.70
2022-09-30T14:17:30.063Z,1.67
2022-09-30T14:20:18.590Z,1.93
2022-09-30T14:22:46.702Z,1.80
2022-09-30T14:25:17.205Z,1.80
2022-09-30T14:27:59.532Z,1.63
2022-09-30T14:30:28.631Z,1.60
2022-09-30T14:32:58.422Z,1.90
2022-09-30T14:35:28.629Z,1.60
2022-09-30T14:37:58.803Z,1.80
2022-09-30T14:40:28.735Z,1.63
2022-09-30T14:42:56.851Z,1.77
2022-09-30T14:45:27.451Z,1.70
2022-09-30T14:47:58.158Z,1.90
2022-09-30T14:50:27.774Z,1.77
2022-09-30T14:52:58.745Z,1.90
2022-09-30T14:55:30.566Z,2.00
2022-09-30T14:58:18.771Z,1.60
2022-09-30T15:00:46.970Z,1.63
2022-09-30T15:03:15.108Z,2.03
2022-09-30T15:05:43.181Z,1.90
2022-09-30T15:08:14.253Z,1.77
2022-09-30T15:10:47.978Z,1.83
2022-09-30T15:13:16.249Z,1.70
2022-09-30T15:15:44.288Z,1.90
2022-09-30T15:18:30.520Z,1.60
2022-09-30T15:21:00.083Z,1.70
2022-09-30T15:23:30.139Z,1.87
2022-09-30T15:25:59.604Z,1.50
2022-09-30T15:28:28.672Z,1.50
2022-09-30T15:30:58.597Z,1.57
2022-09-30T15:33:28.089Z,1.50
2022-09-30T15:36:06.324Z,2.13
2022-09-30T15:38:35.243Z,1.50
2022-09-30T15:41:06.272Z,1.67
2022-09-30T15:43:39.709Z,2.00
2022-09-30T15:46:26.862Z,1.70
2022-09-30T15:48:59.282Z,1.80
2022-09-30T15:51:38.247Z,1.80
2022-09-30T15:54:34.735Z,2.00
2022-09-30T15:57:06.183Z,1.57
2022-09-30T16:00:02.220Z,1.70
2022-09-30T16:02:31.577Z,1.63
2022-09-30T16:05:00.329Z,1.60
2022-09-30T16:07:29.037Z,1.73
2022-09-30T16:09:57.791Z,1.97
2022-09-30T16:12:28.601Z,1.70
2022-09-30T16:14:58.233Z,1.57
2022-09-30T16:17:27.401Z,1.50
2022-09-30T16:19:57.566Z,1.50
2022-09-30T16:22:36.685Z,1.77
2022-09-30T16:25:10.950Z,1.80
2022-09-30T16:27:40.559Z,1.60
2022-09-30T16:30:09.076Z,1.60
2022-09-30T16:32:38.685Z,1.60
2022-09-30T16:35:08.062Z,1.50
2022-09-30T16:37:36.286Z,1.57
2022-09-30T16:40:16.955Z,1.60
2022-09-30T16:42:46.350Z,1.87
2022-09-30T16:45:15.074Z,1.53
2022-09-30T16:47:43.511Z,1.30
2022-09-30T16:50:23.614Z,1.60
2022-09-30T16:52:51.669Z,1.53
2022-09-30T16:55:19.747Z,1.50
2022-09-30T16:57:50.372Z,1.40
2022-09-30T17:00:18.576Z,1.77
2022-09-30T17:02:47.821Z,1.40
2022-09-30T17:05:18.650Z,1.60
2022-09-30T17:07:47.001Z,1.60
2022-09-30T17:10:20.575Z,1.60
2022-09-30T17:12:51.041Z,1.80
2022-09-30T17:15:19.264Z,1.53
2022-09-30T17:17:47.347Z,1.57
2022-09-30T17:20:15.515Z,1.40
2022-09-30T17:22:43.885Z,1.80
2022-09-30T17:25:12.786Z,1.33
2022-09-30T17:27:40.871Z,1.47
2022-09-30T17:30:11.594Z,1.70
2022-09-30T17:32:39.675Z,2.10
2022-09-30T17:35:09.151Z,1.60
2022-09-30T17:37:38.592Z,1.73
2022-09-30T17:40:23.343Z,1.60
2022-09-30T17:43:10.993Z,1.60
2022-09-30T17:45:41.562Z,1.77
2022-09-30T17:48:09.974Z,1.77
2022-09-30T17:50:38.291Z,1.60
2022-09-30T17:53:07.836Z,1.70
2022-09-30T17:55:36.087Z,1.90
2022-09-30T17:58:04.263Z,1.90
2022-09-30T18:00:33.558Z,1.67
2022-09-30T18:03:03.328Z,1.77
2022-09-30T18:05:31.941Z,1.80
2022-09-30T18:07:59.982Z,1.70
2022-09-30T18:10:28.329Z,2.00
2022-09-30T18:12:56.625Z,1.87
2022-09-30T18:15:26.306Z,1.73
2022-09-30T18:17:54.369Z,1.77
2022-09-30T18:20:25.500Z,2.00
2022-09-30T18:22:53.875Z,2.30
2022-09-30T18:25:22.759Z,2.10
2022-09-30T18:27:51.690Z,1.93
2022-09-30T18:30:21.773Z,2.13
2022-09-30T18:32:50.591Z,2.03
2022-09-30T18:35:20.284Z,2.37
2022-09-30T18:37:50.307Z,2.47
2022-09-30T18:40:18.481Z,2.00
2022-09-30T18:42:46.517Z,1.80
2022-09-30T18:45:14.612Z,2.07
2022-09-30T18:47:43.152Z,1.90
2022-09-30T18:50:11.682Z,2.40
2022-09-30T18:52:40.554Z,2.30
2022-09-30T18:55:11.129Z,2.13
2022-09-30T18:57:41.731Z,2.07
2022-09-30T19:00:11.134Z,2.13
2022-09-30T19:02:40.085Z,2.07
2022-09-30T19:05:08.776Z,2.00
2022-09-30T19:07:39.115Z,2.20
2022-09-30T19:10:09.967Z,2.30
2022-09-30T19:12:38.371Z,1.93
2022-09-30T19:15:07.098Z,2.23
2022-09-30T19:17:37.004Z,2.13
2022-09-30T19:20:05.563Z,2.10
2022-09-30T19:22:37.253Z,2.20
2022-09-30T19:25:05.729Z,2.17
2022-09-30T19:27:36.053Z,2.00
2022-09-30T19:30:04.409Z,1.87
2022-09-30T19:32:34.517Z,2.20
2022-09-30T19:35:06.358Z,2.50
2022-09-30T19:37:35.074Z,2.07
2022-09-30T19:40:16.943Z,2.67
2022-09-30T19:42:49.731Z,2.30
2022-09-30T19:45:22.516Z,2.17
2022-09-30T19:47:51.759Z,2.20
2022-09-30T19:50:19.811Z,2.00
2022-09-30T19:52:55.733Z,2.13
2022-09-30T19:55:24.653Z,2.00
2022-09-30T19:57:54.250Z,1.90
2022-09-30T20:00:22.319Z,2.00
2022-09-30T20:02:50.708Z,2.00
2022-09-30T20:05:19.047Z,2.00
2022-09-30T20:07:51.057Z,1.70
2022-09-30T20:10:19.485Z,2.27
2022-09-30T20:12:47.575Z,2.17
2022-09-30T20:15:34.592Z,2.27
2022-09-30T20:18:02.618Z,2.47
2022-09-30T20:20:37.320Z,2.00
2022-09-30T20:23:05.545Z,2.20
2022-09-30T20:25:34.919Z,2.00
2022-09-30T20:28:04.125Z,2.07
2022-09-30T20:30:33.905Z,2.10
2022-09-30T20:33:02.218Z,1.90
2022-09-30T20:35:30.308Z,2.20
2022-09-30T20:37:58.366Z,2.10
2022-09-30T20:40:26.569Z,1.60
2022-09-30T20:42:59.323Z,2.17
2022-09-30T20:45:29.447Z,2.10
2022-09-30T20:47:58.934Z,2.10
2022-09-30T20:50:36.183Z,2.10
2022-09-30T20:53:06.112Z,2.50
2022-09-30T20:55:35.683Z,2.10
2022-09-30T20:58:03.857Z,2.00
2022-09-30T21:00:32.376Z,2.20
2022-09-30T21:03:01.810Z,2.13
2022-09-30T21:05:31.060Z,2.17
2022-09-30T21:08:00.592Z,1.97
2022-09-30T21:10:30.281Z,2.27
2022-09-30T21:12:59.064Z,2.50
2022-09-30T21:15:27.769Z,2.40
2022-09-30T21:17:56.061Z,2.37
2022-09-30T21:20:25.509Z,2.20
2022-09-30T21:22:53.899Z,2.00
2022-09-30T21:25:21.954Z,1.87
2022-09-30T21:27:50.128Z,1.80
2022-09-30T21:30:18.409Z,1.90
2022-09-30T21:32:46.580Z,2.00
2022-09-30T21:35:15.147Z,2.50
2022-09-30T21:37:44.609Z,2.13
2022-09-30T21:40:12.775Z,2.13
2022-09-30T21:42:40.946Z,2.20
2022-09-30T21:45:10.215Z,1.73
2022-09-30T21:47:38.279Z,1.80
2022-09-30T21:50:07.067Z,2.20
2022-09-30T21:52:35.138Z,1.83
2022-09-30T21:55:07.168Z,2.60
2022-09-30T21:57:35.268Z,1.77
2022-09-30T22:00:03.643Z,2.00
2022-09-30T22:02:31.758Z,2.20
2022-09-30T22:04:59.890Z,2.00
2022-09-30T22:07:27.943Z,1.97
2022-09-30T22:09:56.012Z,2.00
2022-09-30T22:12:25.503Z,1.80
2022-09-30T22:14:53.579Z,1.90
2022-09-30T22:17:21.622Z,2.00
2022-09-30T22:19:49.758Z,1.83
2022-09-30T22:22:17.829Z,2.00
2022-09-30T22:24:47.156Z,1.70
2022-09-30T22:27:15.210Z,2.00
2022-09-30T22:29:44.670Z,1.60
2022-09-30T22:32:12.758Z,1.80
2022-09-30T22:34:58.256Z,2.13
2022-09-30T22:37:43.918Z,2.20
2022-09-30T22:40:16.998Z,1.70
2022-09-30T22:42:45.472Z,2.10
2022-09-30T22:45:15.031Z,1.90
2022-09-30T22:47:43.103Z,2.20
2022-09-30T22:50:11.616Z,1.70
2022-09-30T22:52:39.950Z,1.67
2022-09-30T22:55:08.596Z,2.10
2022-09-30T22:57:36.683Z,1.70
2022-09-30T23:00:06.261Z,1.70
2022-09-30T23:02:35.795Z,1.80
2022-09-30T23:05:04.141Z,1.50
2022-09-30T23:07:32.195Z,1.70
2022-09-30T23:10:00.745Z,1.47
2022-09-30T23:12:29.970Z,1.93
2022-09-30T23:14:58.539Z,1.80
2022-09-30T23:17:26.926Z,1.70
2022-09-30T23:19:56.703Z,1.83
2022-09-30T23:22:24.853Z,2.00
2022-09-30T23:24:52.937Z,1.93
2022-09-30T23:27:20.977Z,1.70
2022-09-30T23:29:49.038Z,1.73
2022-09-30T23:32:17.171Z,1.83
2022-09-30T23:34:45.324Z,1.93
2022-09-30T23:37:14.752Z,1.50
2022-09-30T23:39:42.843Z,2.00
2022-09-30T23:42:10.909Z,1.80
2022-09-30T23:44:38.958Z,2.00
2022-09-30T23:47:18.813Z,1.50
2022-09-30T23:49:47.085Z,1.90
2022-09-30T23:52:17.483Z,2.00
2022-09-30T23:54:47.026Z,1.70
2022-09-30T23:57:15.078Z,1.70
2022-09-30T23:59:43.125Z,2.13
